sensor_id;sensor_type;location;lat;lon;timestamp;P1;durP1;ratioP1;P2;durP2;ratioP2
33074;SDS011;19433;51.292;6.868;2023-10-31T01:37:13;4.90;;;4.20;;
33074;SDS011;19433;51.292;6.868;2023-10-31T06:35:50;16.00;;;11.57;;
33074;SDS011;19433;51.292;6.868;2023-10-31T06:38:16;12.33;;;11.10;;
33074;SDS011;19433;51.292;6.868;2023-10-31T06:40:42;13.10;;;11.83;;
33074;SDS011;19433;51.292;6.868;2023-10-31T06:43:07;12.27;;;10.80;;
33074;SDS011;19433;51.292;6.868;2023-10-31T06:45:32;11.93;;;10.83;;
33074;SDS011;19433;51.292;6.868;2023-10-31T06:47:58;12.33;;;11.13;;
33074;SDS011;19433;51.292;6.868;2023-10-31T06:50:23;15.10;;;12.03;;
33074;SDS011;19433;51.292;6.868;2023-10-31T06:52:49;15.40;;;13.30;;
33074;SDS011;19433;51.292;6.868;2023-10-31T06:55:14;16.53;;;13.90;;
33074;SDS011;19433;51.292;6.868;2023-10-31T06:57:40;15.23;;;13.70;;
33074;SDS011;19433;51.292;6.868;2023-10-31T07:00:05;18.43;;;13.50;;
33074;SDS011;19433;51.292;6.868;2023-10-31T07:02:33;14.60;;;12.93;;
33074;SDS011;19433;51.292;6.868;2023-10-31T07:05:00;15.97;;;13.57;;
33074;SDS011;19433;51.292;6.868;2023-10-31T07:07:25;14.93;;;13.43;;
33074;SDS011;19433;51.292;6.868;2023-10-31T07:09:50;16.33;;;14.53;;
33074;SDS011;19433;51.292;6.868;2023-10-31T07:12:15;17.50;;;13.67;;
33074;SDS011;19433;51.292;6.868;2023-10-31T07:14:41;16.03;;;14.30;;
33074;SDS011;19433;51.292;6.868;2023-10-31T07:17:06;16.60;;;14.80;;
33074;SDS011;19433;51.292;6.868;2023-10-31T07:19:31;14.90;;;13.37;;
33074;SDS011;19433;51.292;6.868;2023-10-31T07:21:56;14.83;;;13.20;;
33074;SDS011;19433;51.292;6.868;2023-10-31T07:24:22;15.60;;;14.20;;
33074;SDS011;19433;51.292;6.868;2023-10-31T07:26:47;14.97;;;13.50;;
33074;SDS011;19433;51.292;6.868;2023-10-31T07:29:12;15.17;;;13.60;;
33074;SDS011;19433;51.292;6.868;2023-10-31T07:31:37;16.47;;;14.80;;
33074;SDS011;19433;51.292;6.868;2023-10-31T07:34:04;16.50;;;14.10;;
33074;SDS011;19433;51.292;6.868;2023-10-31T07:36:30;18.70;;;13.20;;
33074;SDS011;19433;51.292;6.868;2023-10-31T07:38:57;14.20;;;12.80;;
33074;SDS011;19433;51.292;6.868;2023-10-31T07:41:22;15.43;;;13.77;;
33074;SDS011;19433;51.292;6.868;2023-10-31T07:43:47;14.70;;;13.40;;
33074;SDS011;19433;51.292;6.868;2023-10-31T07:46:13;14.33;;;13.03;;
33074;SDS011;19433;51.292;6.868;2023-10-31T07:48:38;14.03;;;12.80;;
33074;SDS011;19433;51.292;6.868;2023-10-31T07:51:04;14.47;;;13.10;;
33074;SDS011;19433;51.292;6.868;2023-10-31T07:53:29;13.17;;;12.07;;
33074;SDS011;19433;51.292;6.868;2023-10-31T07:55:55;13.73;;;12.30;;
33074;SDS011;19433;51.292;6.868;2023-10-31T07:58:20;14.10;;;12.70;;
33074;SDS011;19433;51.292;6.868;2023-10-31T08:00:46;13.40;;;11.80;;
33074;SDS011;19433;51.292;6.868;2023-10-31T08:03:11;13.00;;;11.90;;
33074;SDS011;19433;51.292;6.868;2023-10-31T08:05:37;13.70;;;12.30;;
33074;SDS011;19433;51.292;6.868;2023-10-31T08:08:02;13.57;;;12.17;;
33074;SDS011;19433;51.292;6.868;2023-10-31T08:10:27;13.97;;;12.77;;
33074;SDS011;19433;51.292;6.868;2023-10-31T08:12:53;12.60;;;11.50;;
33074;SDS011;19433;51.292;6.868;2023-10-31T08:15:18;12.50;;;11.50;;
33074;SDS011;19433;51.292;6.868;2023-10-31T08:17:43;11.37;;;10.27;;
33074;SDS011;19433;51.292;6.868;2023-10-31T08:20:09;11.77;;;10.33;;
33074;SDS011;19433;51.292;6.868;2023-10-31T08:22:36;11.10;;;10.17;;
33074;SDS011;19433;51.292;6.868;2023-10-31T08:25:02;11.40;;;10.50;;
33074;SDS011;19433;51.292;6.868;2023-10-31T08:27:27;10.30;;;8.80;;
33074;SDS011;19433;51.292;6.868;2023-10-31T08:29:53;11.57;;;10.60;;
33074;SDS011;19433;51.292;6.868;2023-10-31T08:32:18;10.40;;;9.50;;
33074;SDS011;19433;51.292;6.868;2023-10-31T08:34:43;11.23;;;8.87;;
33074;SDS011;19433;51.292;6.868;2023-10-31T08:37:08;9.83;;;9.00;;
33074;SDS011;19433;51.292;6.868;2023-10-31T08:39:34;10.10;;;9.30;;
33074;SDS011;19433;51.292;6.868;2023-10-31T08:41:59;10.43;;;8.80;;
33074;SDS011;19433;51.292;6.868;2023-10-31T08:44:24;10.97;;;8.80;;
33074;SDS011;19433;51.292;6.868;2023-10-31T08:46:50;9.60;;;8.80;;
33074;SDS011;19433;51.292;6.868;2023-10-31T08:49:15;9.17;;;8.27;;
33074;SDS011;19433;51.292;6.868;2023-10-31T08:51:41;9.87;;;8.90;;
33074;SDS011;19433;51.292;6.868;2023-10-31T08:54:07;10.00;;;8.53;;
33074;SDS011;19433;51.292;6.868;2023-10-31T08:56:33;9.20;;;8.50;;
33074;SDS011;19433;51.292;6.868;2023-10-31T08:58:59;11.13;;;9.97;;
33074;SDS011;19433;51.292;6.868;2023-10-31T09:01:24;9.80;;;8.90;;
33074;SDS011;19433;51.292;6.868;2023-10-31T09:03:51;8.97;;;7.83;;
33074;SDS011;19433;51.292;6.868;2023-10-31T09:06:16;11.43;;;8.90;;
33074;SDS011;19433;51.292;6.868;2023-10-31T09:08:41;10.40;;;9.50;;
33074;SDS011;19433;51.292;6.868;2023-10-31T09:11:06;9.27;;;8.47;;
33074;SDS011;19433;51.292;6.868;2023-10-31T09:13:32;9.30;;;8.30;;
33074;SDS011;19433;51.292;6.868;2023-10-31T09:15:58;8.80;;;8.10;;
33074;SDS011;19433;51.292;6.868;2023-10-31T09:18:23;7.87;;;7.17;;
33074;SDS011;19433;51.292;6.868;2023-10-31T09:20:49;8.37;;;7.70;;
33074;SDS011;19433;51.292;6.868;2023-10-31T09:23:14;9.00;;;8.10;;
33074;SDS011;19433;51.292;6.868;2023-10-31T09:25:40;8.20;;;7.50;;
33074;SDS011;19433;51.292;6.868;2023-10-31T09:28:05;7.80;;;7.20;;
33074;SDS011;19433;51.292;6.868;2023-10-31T09:30:31;10.37;;;7.73;;
33074;SDS011;19433;51.292;6.868;2023-10-31T09:32:56;7.10;;;6.50;;
33074;SDS011;19433;51.292;6.868;2023-10-31T09:35:21;7.67;;;7.00;;
33074;SDS011;19433;51.292;6.868;2023-10-31T09:37:47;8.30;;;7.57;;
33074;SDS011;19433;51.292;6.868;2023-10-31T09:40:13;9.87;;;9.07;;
33074;SDS011;19433;51.292;6.868;2023-10-31T09:42:39;9.77;;;8.97;;
33074;SDS011;19433;51.292;6.868;2023-10-31T09:45:05;11.40;;;10.30;;
33074;SDS011;19433;51.292;6.868;2023-10-31T09:47:34;9.57;;;8.77;;
33074;SDS011;19433;51.292;6.868;2023-10-31T09:49:59;9.50;;;8.70;;
33074;SDS011;19433;51.292;6.868;2023-10-31T09:52:24;11.87;;;8.77;;
33074;SDS011;19433;51.292;6.868;2023-10-31T09:54:50;9.10;;;8.20;;
33074;SDS011;19433;51.292;6.868;2023-10-31T09:57:17;8.87;;;8.07;;
33074;SDS011;19433;51.292;6.868;2023-10-31T09:59:42;8.77;;;7.63;;
33074;SDS011;19433;51.292;6.868;2023-10-31T10:02:08;10.30;;;9.50;;
33074;SDS011;19433;51.292;6.868;2023-10-31T10:04:33;8.70;;;7.77;;
33074;SDS011;19433;51.292;6.868;2023-10-31T10:07:00;7.73;;;7.13;;
33074;SDS011;19433;51.292;6.868;2023-10-31T10:09:26;7.23;;;6.73;;
33074;SDS011;19433;51.292;6.868;2023-10-31T10:11:53;7.63;;;7.00;;
33074;SDS011;19433;51.292;6.868;2023-10-31T10:14:18;7.67;;;6.93;;
33074;SDS011;19433;51.292;6.868;2023-10-31T10:16:44;7.23;;;6.67;;
33074;SDS011;19433;51.292;6.868;2023-10-31T10:19:16;7.30;;;6.60;;
33074;SDS011;19433;51.292;6.868;2023-10-31T10:24:17;6.10;;;5.50;;
33074;SDS011;19433;51.292;6.868;2023-10-31T10:26:43;6.23;;;5.50;;
33074;SDS011;19433;51.292;6.868;2023-10-31T10:29:08;6.77;;;6.17;;
33074;SDS011;19433;51.292;6.868;2023-10-31T10:31:34;5.90;;;5.40;;
33074;SDS011;19433;51.292;6.868;2023-10-31T10:34:00;5.73;;;5.33;;
33074;SDS011;19433;51.292;6.868;2023-10-31T10:36:26;5.83;;;5.20;;
33074;SDS011;19433;51.292;6.868;2023-10-31T10:38:53;6.67;;;4.53;;
33074;SDS011;19433;51.292;6.868;2023-10-31T10:41:22;5.17;;;4.73;;
33074;SDS011;19433;51.292;6.868;2023-10-31T10:43:51;5.70;;;5.10;;
33074;SDS011;19433;51.292;6.868;2023-10-31T10:46:20;5.50;;;3.43;;
33074;SDS011;19433;51.292;6.868;2023-10-31T10:48:47;4.67;;;4.10;;
33074;SDS011;19433;51.292;6.868;2023-10-31T10:51:18;4.80;;;3.10;;
33074;SDS011;19433;51.292;6.868;2023-10-31T10:53:51;5.13;;;3.10;;
33074;SDS011;19433;51.292;6.868;2023-10-31T10:56:26;3.60;;;2.93;;
33074;SDS011;19433;51.292;6.868;2023-10-31T10:59:03;3.43;;;2.40;;
33074;SDS011;19433;51.292;6.868;2023-10-31T11:01:33;3.93;;;3.00;;
33074;SDS011;19433;51.292;6.868;2023-10-31T11:04:00;3.93;;;2.50;;
33074;SDS011;19433;51.292;6.868;2023-10-31T11:06:27;5.17;;;3.03;;
33074;SDS011;19433;51.292;6.868;2023-10-31T11:08:54;3.07;;;2.80;;
33074;SDS011;19433;51.292;6.868;2023-10-31T11:11:20;6.37;;;2.83;;
33074;SDS011;19433;51.292;6.868;2023-10-31T11:13:48;4.43;;;2.83;;
33074;SDS011;19433;51.292;6.868;2023-10-31T11:16:17;4.30;;;2.40;;
33074;SDS011;19433;51.292;6.868;2023-10-31T11:18:55;4.20;;;2.53;;
33074;SDS011;19433;51.292;6.868;2023-10-31T11:21:27;3.87;;;2.70;;
33074;SDS011;19433;51.292;6.868;2023-10-31T11:23:57;3.73;;;2.97;;
33074;SDS011;19433;51.292;6.868;2023-10-31T11:26:25;3.00;;;2.70;;
33074;SDS011;19433;51.292;6.868;2023-10-31T11:29:05;6.80;;;3.00;;
33074;SDS011;19433;51.292;6.868;2023-10-31T11:31:31;4.23;;;2.70;;
33074;SDS011;19433;51.292;6.868;2023-10-31T11:34:00;3.10;;;2.27;;
33074;SDS011;19433;51.292;6.868;2023-10-31T11:36:26;3.37;;;3.00;;
33074;SDS011;19433;51.292;6.868;2023-10-31T11:38:51;4.00;;;2.80;;
33074;SDS011;19433;51.292;6.868;2023-10-31T11:41:37;3.00;;;2.43;;
33074;SDS011;19433;51.292;6.868;2023-10-31T11:44:02;6.67;;;2.30;;
33074;SDS011;19433;51.292;6.868;2023-10-31T11:46:28;4.80;;;2.70;;
33074;SDS011;19433;51.292;6.868;2023-10-31T11:48:54;2.53;;;2.33;;
33074;SDS011;19433;51.292;6.868;2023-10-31T11:51:24;3.07;;;2.60;;
33074;SDS011;19433;51.292;6.868;2023-10-31T11:53:50;4.23;;;1.90;;
33074;SDS011;19433;51.292;6.868;2023-10-31T11:56:16;2.07;;;1.97;;
33074;SDS011;19433;51.292;6.868;2023-10-31T11:58:42;2.27;;;2.03;;
33074;SDS011;19433;51.292;6.868;2023-10-31T12:01:08;2.00;;;1.80;;
33074;SDS011;19433;51.292;6.868;2023-10-31T12:03:43;2.40;;;2.20;;
33074;SDS011;19433;51.292;6.868;2023-10-31T12:06:14;3.13;;;2.30;;
33074;SDS011;19433;51.292;6.868;2023-10-31T12:08:41;3.57;;;2.00;;
33074;SDS011;19433;51.292;6.868;2023-10-31T12:11:15;2.93;;;1.80;;
33074;SDS011;19433;51.292;6.868;2023-10-31T12:13:50;6.07;;;2.03;;
33074;SDS011;19433;51.292;6.868;2023-10-31T12:16:27;2.30;;;2.20;;
33074;SDS011;19433;51.292;6.868;2023-10-31T12:18:54;3.03;;;2.17;;
33074;SDS011;19433;51.292;6.868;2023-10-31T12:21:33;1.90;;;1.80;;
33074;SDS011;19433;51.292;6.868;2023-10-31T12:24:03;2.10;;;1.90;;
33074;SDS011;19433;51.292;6.868;2023-10-31T12:26:31;2.60;;;2.27;;
33074;SDS011;19433;51.292;6.868;2023-10-31T12:31:43;2.27;;;1.97;;
33074;SDS011;19433;51.292;6.868;2023-10-31T12:34:13;2.00;;;1.90;;
33074;SDS011;19433;51.292;6.868;2023-10-31T12:36:39;2.20;;;2.00;;
33074;SDS011;19433;51.292;6.868;2023-10-31T12:39:06;3.23;;;1.90;;
33074;SDS011;19433;51.292;6.868;2023-10-31T12:41:34;2.83;;;1.80;;
33074;SDS011;19433;51.292;6.868;2023-10-31T12:44:01;6.87;;;1.90;;
33074;SDS011;19433;51.292;6.868;2023-10-31T12:46:31;2.60;;;2.40;;
33074;SDS011;19433;51.292;6.868;2023-10-31T12:48:57;6.37;;;2.80;;
33074;SDS011;19433;51.292;6.868;2023-10-31T12:51:23;3.03;;;1.90;;
33074;SDS011;19433;51.292;6.868;2023-10-31T12:53:52;3.27;;;2.30;;
33074;SDS011;19433;51.292;6.868;2023-10-31T12:59:05;2.77;;;2.43;;
33074;SDS011;19433;51.292;6.868;2023-10-31T13:01:44;2.67;;;2.07;;
33074;SDS011;19433;51.292;6.868;2023-10-31T13:04:10;4.20;;;2.10;;
33074;SDS011;19433;51.292;6.868;2023-10-31T13:06:36;4.07;;;2.57;;
33074;SDS011;19433;51.292;6.868;2023-10-31T13:09:03;3.57;;;2.20;;
33074;SDS011;19433;51.292;6.868;2023-10-31T13:11:30;4.70;;;2.40;;
33074;SDS011;19433;51.292;6.868;2023-10-31T13:13:56;6.00;;;2.90;;
33074;SDS011;19433;51.292;6.868;2023-10-31T13:16:21;3.93;;;2.43;;
33074;SDS011;19433;51.292;6.868;2023-10-31T13:18:47;4.83;;;2.70;;
33074;SDS011;19433;51.292;6.868;2023-10-31T13:21:12;4.70;;;2.33;;
33074;SDS011;19433;51.292;6.868;2023-10-31T13:23:40;6.10;;;2.33;;
33074;SDS011;19433;51.292;6.868;2023-10-31T13:26:08;2.03;;;1.87;;
33074;SDS011;19433;51.292;6.868;2023-10-31T13:28:34;3.53;;;2.00;;
33074;SDS011;19433;51.292;6.868;2023-10-31T13:30:59;2.93;;;2.10;;
33074;SDS011;19433;51.292;6.868;2023-10-31T13:33:25;2.97;;;2.00;;
33074;SDS011;19433;51.292;6.868;2023-10-31T13:35:51;2.30;;;2.20;;
33074;SDS011;19433;51.292;6.868;2023-10-31T13:38:16;2.33;;;2.13;;
33074;SDS011;19433;51.292;6.868;2023-10-31T13:40:41;2.63;;;2.07;;
33074;SDS011;19433;51.292;6.868;2023-10-31T13:43:07;3.90;;;2.00;;
33074;SDS011;19433;51.292;6.868;2023-10-31T13:45:33;2.90;;;2.00;;
33074;SDS011;19433;51.292;6.868;2023-10-31T13:47:58;3.83;;;1.53;;
33074;SDS011;19433;51.292;6.868;2023-10-31T13:50:23;2.57;;;2.30;;
33074;SDS011;19433;51.292;6.868;2023-10-31T13:52:49;3.20;;;2.10;;
33074;SDS011;19433;51.292;6.868;2023-10-31T13:55:14;3.40;;;1.70;;
33074;SDS011;19433;51.292;6.868;2023-10-31T13:57:39;3.27;;;1.67;;
33074;SDS011;19433;51.292;6.868;2023-10-31T14:00:05;2.00;;;1.30;;
33074;SDS011;19433;51.292;6.868;2023-10-31T14:02:33;3.90;;;1.73;;
33074;SDS011;19433;51.292;6.868;2023-10-31T14:05:00;3.10;;;1.70;;
33074;SDS011;19433;51.292;6.868;2023-10-31T14:07:25;2.33;;;1.80;;
33074;SDS011;19433;51.292;6.868;2023-10-31T14:09:51;1.37;;;1.20;;
33074;SDS011;19433;51.292;6.868;2023-10-31T14:12:18;5.27;;;1.40;;
33074;SDS011;19433;51.292;6.868;2023-10-31T14:14:43;2.67;;;1.80;;
33074;SDS011;19433;51.292;6.868;2023-10-31T14:17:12;2.60;;;1.63;;
33074;SDS011;19433;51.292;6.868;2023-10-31T14:19:38;4.67;;;1.80;;
33074;SDS011;19433;51.292;6.868;2023-10-31T14:22:03;2.03;;;1.80;;
33074;SDS011;19433;51.292;6.868;2023-10-31T14:24:29;1.67;;;1.40;;
33074;SDS011;19433;51.292;6.868;2023-10-31T14:26:56;5.07;;;1.90;;
33074;SDS011;19433;51.292;6.868;2023-10-31T14:29:23;2.67;;;1.30;;
33074;SDS011;19433;51.292;6.868;2023-10-31T14:31:49;5.20;;;2.03;;
33074;SDS011;19433;51.292;6.868;2023-10-31T14:34:14;2.93;;;1.83;;
33074;SDS011;19433;51.292;6.868;2023-10-31T14:36:39;2.20;;;1.40;;
33074;SDS011;19433;51.292;6.868;2023-10-31T14:39:05;3.13;;;1.70;;
33074;SDS011;19433;51.292;6.868;2023-10-31T14:41:30;2.17;;;1.83;;
33074;SDS011;19433;51.292;6.868;2023-10-31T14:43:58;4.90;;;1.67;;
33074;SDS011;19433;51.292;6.868;2023-10-31T14:46:24;1.70;;;1.60;;
33074;SDS011;19433;51.292;6.868;2023-10-31T14:48:55;2.63;;;1.70;;
33074;SDS011;19433;51.292;6.868;2023-10-31T14:51:20;2.27;;;1.90;;
33074;SDS011;19433;51.292;6.868;2023-10-31T14:53:46;4.90;;;1.83;;
33074;SDS011;19433;51.292;6.868;2023-10-31T14:56:11;3.53;;;1.87;;
33074;SDS011;19433;51.292;6.868;2023-10-31T14:58:46;3.77;;;1.90;;
33074;SDS011;19433;51.292;6.868;2023-10-31T15:07:22;4.07;;;2.30;;
33074;SDS011;19433;51.292;6.868;2023-10-31T15:09:47;3.77;;;1.70;;
33074;SDS011;19433;51.292;6.868;2023-10-31T15:15:41;3.60;;;1.70;;
33074;SDS011;19433;51.292;6.868;2023-10-31T15:50:36;5.87;;;2.00;;
33074;SDS011;19433;51.292;6.868;2023-10-31T15:53:02;4.20;;;2.60;;
33074;SDS011;19433;51.292;6.868;2023-10-31T15:55:27;2.90;;;2.43;;
33074;SDS011;19433;51.292;6.868;2023-10-31T15:57:53;2.43;;;1.80;;
33074;SDS011;19433;51.292;6.868;2023-10-31T16:00:19;4.87;;;1.97;;
33074;SDS011;19433;51.292;6.868;2023-10-31T16:02:44;6.00;;;2.03;;
33074;SDS011;19433;51.292;6.868;2023-10-31T16:05:09;7.30;;;2.70;;
33074;SDS011;19433;51.292;6.868;2023-10-31T16:07:35;3.00;;;1.83;;
33074;SDS011;19433;51.292;6.868;2023-10-31T16:10:02;3.17;;;2.27;;
33074;SDS011;19433;51.292;6.868;2023-10-31T16:12:29;6.53;;;2.23;;
33074;SDS011;19433;51.292;6.868;2023-10-31T16:14:54;5.10;;;2.43;;
33074;SDS011;19433;51.292;6.868;2023-10-31T16:17:19;4.93;;;2.80;;
33074;SDS011;19433;51.292;6.868;2023-10-31T16:19:44;4.10;;;2.50;;
33074;SDS011;19433;51.292;6.868;2023-10-31T16:22:10;4.10;;;2.37;;
33074;SDS011;19433;51.292;6.868;2023-10-31T16:24:38;6.43;;;2.10;;
33074;SDS011;19433;51.292;6.868;2023-10-31T16:27:04;4.27;;;3.33;;
33074;SDS011;19433;51.292;6.868;2023-10-31T16:29:53;2.77;;;2.57;;
33074;SDS011;19433;51.292;6.868;2023-10-31T16:32:19;11.10;;;2.77;;
33074;SDS011;19433;51.292;6.868;2023-10-31T16:34:44;5.47;;;2.33;;
33074;SDS011;19433;51.292;6.868;2023-10-31T16:37:11;3.90;;;2.77;;
33074;SDS011;19433;51.292;6.868;2023-10-31T16:39:37;3.83;;;2.63;;
33074;SDS011;19433;51.292;6.868;2023-10-31T16:42:02;2.43;;;2.13;;
33074;SDS011;19433;51.292;6.868;2023-10-31T16:44:28;6.90;;;3.20;;
33074;SDS011;19433;51.292;6.868;2023-10-31T16:46:53;4.03;;;2.57;;
33074;SDS011;19433;51.292;6.868;2023-10-31T16:49:18;5.50;;;2.93;;
33074;SDS011;19433;51.292;6.868;2023-10-31T16:51:44;10.40;;;3.10;;
33074;SDS011;19433;51.292;6.868;2023-10-31T16:54:09;4.47;;;3.17;;
33074;SDS011;19433;51.292;6.868;2023-10-31T16:56:34;4.03;;;3.27;;
33074;SDS011;19433;51.292;6.868;2023-10-31T16:59:00;2.97;;;2.60;;
33074;SDS011;19433;51.292;6.868;2023-10-31T17:01:25;4.77;;;3.00;;
33074;SDS011;19433;51.292;6.868;2023-10-31T17:03:50;5.20;;;2.60;;
33074;SDS011;19433;51.292;6.868;2023-10-31T17:06:16;3.00;;;2.43;;
33074;SDS011;19433;51.292;6.868;2023-10-31T17:08:41;6.67;;;2.57;;
33074;SDS011;19433;51.292;6.868;2023-10-31T17:11:07;2.77;;;2.57;;
33074;SDS011;19433;51.292;6.868;2023-10-31T17:13:32;3.80;;;2.60;;
33074;SDS011;19433;51.292;6.868;2023-10-31T17:15:59;4.50;;;3.30;;
33074;SDS011;19433;51.292;6.868;2023-10-31T17:18:28;32.70;;;18.87;;
33074;SDS011;19433;51.292;6.868;2023-10-31T17:20:54;43.93;;;22.83;;
33074;SDS011;19433;51.292;6.868;2023-10-31T17:23:23;19.20;;;11.90;;
33074;SDS011;19433;51.292;6.868;2023-10-31T17:25:49;5.33;;;3.90;;
33074;SDS011;19433;51.292;6.868;2023-10-31T17:28:15;5.47;;;2.63;;
33074;SDS011;19433;51.292;6.868;2023-10-31T17:30:40;6.47;;;5.87;;
33074;SDS011;19433;51.292;6.868;2023-10-31T17:33:05;4.53;;;3.50;;
33074;SDS011;19433;51.292;6.868;2023-10-31T17:35:31;4.13;;;3.10;;
33074;SDS011;19433;51.292;6.868;2023-10-31T17:37:56;3.50;;;3.20;;
33074;SDS011;19433;51.292;6.868;2023-10-31T17:40:21;4.03;;;3.63;;
33074;SDS011;19433;51.292;6.868;2023-10-31T17:42:47;6.33;;;2.90;;
33074;SDS011;19433;51.292;6.868;2023-10-31T17:45:12;3.93;;;3.57;;
33074;SDS011;19433;51.292;6.868;2023-10-31T17:47:38;5.50;;;3.83;;
33074;SDS011;19433;51.292;6.868;2023-10-31T17:50:03;9.60;;;4.00;;
33074;SDS011;19433;51.292;6.868;2023-10-31T17:52:29;4.10;;;3.70;;
33074;SDS011;19433;51.292;6.868;2023-10-31T17:54:54;4.40;;;4.00;;
33074;SDS011;19433;51.292;6.868;2023-10-31T17:57:20;5.30;;;4.40;;
33074;SDS011;19433;51.292;6.868;2023-10-31T17:59:45;7.30;;;4.83;;
33074;SDS011;19433;51.292;6.868;2023-10-31T18:02:11;8.63;;;4.60;;
33074;SDS011;19433;51.292;6.868;2023-10-31T18:04:36;5.40;;;4.80;;
33074;SDS011;19433;51.292;6.868;2023-10-31T18:07:01;4.83;;;4.30;;
33074;SDS011;19433;51.292;6.868;2023-10-31T18:09:27;6.07;;;4.30;;
33074;SDS011;19433;51.292;6.868;2023-10-31T18:11:52;11.27;;;10.20;;
33074;SDS011;19433;51.292;6.868;2023-10-31T18:14:17;7.30;;;4.20;;
33074;SDS011;19433;51.292;6.868;2023-10-31T18:16:43;6.07;;;4.53;;
33074;SDS011;19433;51.292;6.868;2023-10-31T18:19:08;4.57;;;3.70;;
33074;SDS011;19433;51.292;6.868;2023-10-31T18:21:34;5.47;;;3.67;;
33074;SDS011;19433;51.292;6.868;2023-10-31T18:23:59;5.40;;;4.20;;
33074;SDS011;19433;51.292;6.868;2023-10-31T18:26:24;4.83;;;4.27;;
33074;SDS011;19433;51.292;6.868;2023-10-31T18:28:50;6.53;;;4.93;;
33074;SDS011;19433;51.292;6.868;2023-10-31T18:31:18;5.60;;;4.50;;
33074;SDS011;19433;51.292;6.868;2023-10-31T18:33:43;4.53;;;3.60;;
33074;SDS011;19433;51.292;6.868;2023-10-31T18:36:08;4.77;;;4.37;;
33074;SDS011;19433;51.292;6.868;2023-10-31T18:38:34;4.73;;;4.27;;
33074;SDS011;19433;51.292;6.868;2023-10-31T18:41:00;6.07;;;4.10;;
33074;SDS011;19433;51.292;6.868;2023-10-31T18:43:26;4.60;;;4.00;;
33074;SDS011;19433;51.292;6.868;2023-10-31T18:45:51;8.10;;;4.93;;
33074;SDS011;19433;51.292;6.868;2023-10-31T18:48:16;10.13;;;4.30;;
33074;SDS011;19433;51.292;6.868;2023-10-31T18:50:42;4.93;;;4.47;;
33074;SDS011;19433;51.292;6.868;2023-10-31T18:53:07;5.00;;;4.60;;
33074;SDS011;19433;51.292;6.868;2023-10-31T18:55:32;5.83;;;5.33;;
33074;SDS011;19433;51.292;6.868;2023-10-31T18:57:58;7.43;;;4.90;;
33074;SDS011;19433;51.292;6.868;2023-10-31T19:00:23;5.50;;;5.00;;
33074;SDS011;19433;51.292;6.868;2023-10-31T19:02:48;6.93;;;6.17;;
33074;SDS011;19433;51.292;6.868;2023-10-31T19:05:14;6.30;;;5.70;;
33074;SDS011;19433;51.292;6.868;2023-10-31T19:07:40;5.47;;;4.90;;
33074;SDS011;19433;51.292;6.868;2023-10-31T19:10:06;7.70;;;4.90;;
33074;SDS011;19433;51.292;6.868;2023-10-31T19:12:32;5.33;;;4.77;;
33074;SDS011;19433;51.292;6.868;2023-10-31T19:14:58;4.00;;;3.60;;
33074;SDS011;19433;51.292;6.868;2023-10-31T19:17:23;5.57;;;4.10;;
33074;SDS011;19433;51.292;6.868;2023-10-31T19:19:48;6.10;;;4.00;;
33074;SDS011;19433;51.292;6.868;2023-10-31T19:22:13;4.20;;;3.90;;
33074;SDS011;19433;51.292;6.868;2023-10-31T19:24:39;8.63;;;4.10;;
33074;SDS011;19433;51.292;6.868;2023-10-31T19:27:04;4.40;;;4.03;;
33074;SDS011;19433;51.292;6.868;2023-10-31T19:29:30;6.53;;;3.93;;
33074;SDS011;19433;51.292;6.868;2023-10-31T19:31:55;6.63;;;4.67;;
33074;SDS011;19433;51.292;6.868;2023-10-31T19:34:20;6.00;;;3.90;;
33074;SDS011;19433;51.292;6.868;2023-10-31T19:36:46;5.60;;;3.77;;
33074;SDS011;19433;51.292;6.868;2023-10-31T19:39:11;4.70;;;3.60;;
33074;SDS011;19433;51.292;6.868;2023-10-31T19:41:37;7.70;;;4.00;;
33074;SDS011;19433;51.292;6.868;2023-10-31T19:44:02;5.20;;;4.80;;
33074;SDS011;19433;51.292;6.868;2023-10-31T19:46:28;5.00;;;4.37;;
33074;SDS011;19433;51.292;6.868;2023-10-31T19:48:53;6.40;;;5.00;;
33074;SDS011;19433;51.292;6.868;2023-10-31T19:51:21;4.47;;;3.73;;
33074;SDS011;19433;51.292;6.868;2023-10-31T19:53:47;4.53;;;4.13;;
33074;SDS011;19433;51.292;6.868;2023-10-31T19:56:16;5.30;;;4.80;;
33074;SDS011;19433;51.292;6.868;2023-10-31T19:58:42;5.77;;;5.00;;
33074;SDS011;19433;51.292;6.868;2023-10-31T20:01:08;5.47;;;4.40;;
33074;SDS011;19433;51.292;6.868;2023-10-31T20:03:33;8.43;;;5.07;;
33074;SDS011;19433;51.292;6.868;2023-10-31T20:05:58;6.77;;;5.40;;
33074;SDS011;19433;51.292;6.868;2023-10-31T20:08:24;6.93;;;5.87;;
33074;SDS011;19433;51.292;6.868;2023-10-31T20:10:49;6.17;;;4.90;;
33074;SDS011;19433;51.292;6.868;2023-10-31T20:13:15;7.00;;;5.37;;
33074;SDS011;19433;51.292;6.868;2023-10-31T20:15:42;11.03;;;5.47;;
33074;SDS011;19433;51.292;6.868;2023-10-31T20:32:41;7.00;;;6.23;;
33074;SDS011;19433;51.292;6.868;2023-10-31T20:35:06;9.60;;;5.40;;
33074;SDS011;19433;51.292;6.868;2023-10-31T20:37:32;5.40;;;4.90;;
33074;SDS011;19433;51.292;6.868;2023-10-31T20:39:57;15.20;;;5.17;;
33074;SDS011;19433;51.292;6.868;2023-10-31T20:42:23;7.90;;;5.47;;
33074;SDS011;19433;51.292;6.868;2023-10-31T20:44:48;13.80;;;7.00;;
33074;SDS011;19433;51.292;6.868;2023-10-31T20:47:13;9.80;;;4.83;;
33074;SDS011;19433;51.292;6.868;2023-10-31T20:49:40;6.47;;;4.63;;
33074;SDS011;19433;51.292;6.868;2023-10-31T20:52:08;10.40;;;5.00;;
33074;SDS011;19433;51.292;6.868;2023-10-31T20:54:34;8.47;;;4.73;;
33074;SDS011;19433;51.292;6.868;2023-10-31T20:57:02;9.37;;;5.00;;
33074;SDS011;19433;51.292;6.868;2023-10-31T20:59:28;5.10;;;4.60;;
33074;SDS011;19433;51.292;6.868;2023-10-31T21:01:53;5.80;;;4.90;;
33074;SDS011;19433;51.292;6.868;2023-10-31T21:04:18;10.90;;;5.40;;
33074;SDS011;19433;51.292;6.868;2023-10-31T21:06:44;9.50;;;6.70;;
33074;SDS011;19433;51.292;6.868;2023-10-31T21:09:09;5.37;;;4.80;;
33074;SDS011;19433;51.292;6.868;2023-10-31T21:11:35;14.93;;;5.40;;
33074;SDS011;19433;51.292;6.868;2023-10-31T21:14:02;9.83;;;4.67;;
33074;SDS011;19433;51.292;6.868;2023-10-31T21:16:29;6.70;;;5.13;;
33074;SDS011;19433;51.292;6.868;2023-10-31T21:18:55;7.30;;;4.87;;
33074;SDS011;19433;51.292;6.868;2023-10-31T21:21:20;10.43;;;6.03;;
33074;SDS011;19433;51.292;6.868;2023-10-31T21:23:47;8.33;;;5.47;;
33074;SDS011;19433;51.292;6.868;2023-10-31T21:26:13;7.13;;;4.27;;
33074;SDS011;19433;51.292;6.868;2023-10-31T22:25:26;6.00;;;3.73;;
33074;SDS011;19433;51.292;6.868;2023-10-31T22:27:52;5.40;;;3.90;;
33074;SDS011;19433;51.292;6.868;2023-10-31T22:30:17;8.10;;;4.90;;
33074;SDS011;19433;51.292;6.868;2023-10-31T22:32:43;6.40;;;4.70;;
33074;SDS011;19433;51.292;6.868;2023-10-31T22:35:08;11.23;;;4.33;;
33074;SDS011;19433;51.292;6.868;2023-10-31T22:37:33;7.87;;;4.60;;
33074;SDS011;19433;51.292;6.868;2023-10-31T22:40:03;6.63;;;4.10;;
33074;SDS011;19433;51.292;6.868;2023-10-31T22:42:29;5.60;;;4.40;;
33074;SDS011;19433;51.292;6.868;2023-10-31T22:44:55;6.33;;;4.20;;
33074;SDS011;19433;51.292;6.868;2023-10-31T22:47:20;12.77;;;4.60;;
33074;SDS011;19433;51.292;6.868;2023-10-31T22:49:46;9.00;;;3.93;;
33074;SDS011;19433;51.292;6.868;2023-10-31T22:52:11;10.40;;;4.80;;
33074;SDS011;19433;51.292;6.868;2023-10-31T22:54:37;15.17;;;4.83;;
33074;SDS011;19433;51.292;6.868;2023-10-31T22:57:02;6.00;;;4.43;;
33074;SDS011;19433;51.292;6.868;2023-10-31T22:59:28;9.30;;;4.67;;
33074;SDS011;19433;51.292;6.868;2023-10-31T23:01:53;13.07;;;4.97;;
33074;SDS011;19433;51.292;6.868;2023-10-31T23:04:21;8.80;;;4.57;;
33074;SDS011;19433;51.292;6.868;2023-10-31T23:06:47;5.90;;;4.43;;
33074;SDS011;19433;51.292;6.868;2023-10-31T23:09:12;10.97;;;5.07;;
33074;SDS011;19433;51.292;6.868;2023-10-31T23:11:37;7.87;;;4.20;;